Gladhammar, Sweden

10:17 AM CET on December 21, 2014 (GMT +0100)
Kvännaren | Change Station
CLOSE
Current Station
Personal Weather Station
Location: Västervik, KALMAR COUNTY
Elevation: 66 ft
Nearby Weather Stations

Elev 66 ft 57.75 °N, 16.60 °E | Updated 1 minute ago

Clear
Clear
43.5 °F
Feels Like 44 °F
N
0.0
Wind Variable Wind from West
Gusts 2.2 mph

Today
High -- | Low -- °F
--% Chance of Precip.
Yesterday
High -- | Low -- °F
Precip. -- in
8:36 AM 3:08 PM
Waning Crescent, 1% visible
Pressure 29.74 in
Visibility 6.2 miles
Clouds
Windchill 44 °F
Dew Point 35 °F
Humidity 71%
Rainfall 0.00 in
Snow Depth Not available.
UV Not available.
Pollen Not available.
Air Quality Not available.
Flu Activity Not available.
METAR ESSL 210850Z AUTO 26006KT 9999NDV NCD M00/M02 Q1007

More Conditions Fewer Conditions

Pressure 29.74 in
Visibility 6.2 miles
Clouds
Windchill 44 °F
Dew Point 35 °F
Humidity 71%
Rainfall 0.00 in
Snow Depth Not available.
UV Not available.
Pollen Not available.
Air Quality Not available.
Flu Activity Not available.
METAR ESSL 210850Z AUTO 26006KT 9999NDV NCD M00/M02 Q1007

More Conditions Fewer Conditions

10-Day Weather Forecast

Almanac

Astronomy

Dec. 21, 2014 Rise Set
Actual Time
Civil Twilight
Nautical Twilight
Astronomical Twilight
Moon
Length of Visible Light
Length of Day
Tomorrow will be .
, % of the Moon is Illuminated

Today's Extremes

Country Highs Country Lows

Community

WunderPhotos

Upload Photos

1,779,364 photos uploaded!

WunderBlogs® & News

Nearby

Air Quality

  Air Quality AQ Index Pollutant
Not available.

Snow Depth

Station Depth Elevation

Earthquake Activity

City Distance Mag. Time & Date
Minimum magnitude displayed is 2.5.

Coastal Water Temperatures

Place Temperature

Nearby Weather Stations